createdAt,value
2023-03-13T00:01:50.539Z,4.47
2023-03-13T00:04:17.136Z,4.14
2023-03-13T00:06:43.675Z,4.38
2023-03-13T00:09:12.175Z,4.23
2023-03-13T00:11:38.721Z,4.51
2023-03-13T00:14:06.833Z,4.46
2023-03-13T00:16:35.644Z,4.13
2023-03-13T00:19:02.327Z,4.47
2023-03-13T00:21:29.496Z,4.43
2023-03-13T00:23:57.751Z,4.28
2023-03-13T00:26:26.147Z,4.54
2023-03-13T00:28:53.593Z,4.48
2023-03-13T00:31:23.144Z,4.62
2023-03-13T00:33:52.127Z,4.60
2023-03-13T00:36:24.153Z,4.65
2023-03-13T00:38:52.106Z,4.48
2023-03-13T00:41:22.235Z,4.41
2023-03-13T00:43:49.197Z,3.94
2023-03-13T00:46:18.407Z,4.22
2023-03-13T00:48:46.324Z,4.61
2023-03-13T00:51:14.561Z,4.42
2023-03-13T00:53:41.452Z,4.66
2023-03-13T00:56:13.079Z,4.73
2023-03-13T00:58:41.321Z,4.42
2023-03-13T01:01:14.451Z,4.62
2023-03-13T01:03:43.288Z,4.63
2023-03-13T01:06:13.695Z,4.67
2023-03-13T01:08:40.587Z,4.56
2023-03-13T01:11:13.620Z,4.40
2023-03-13T01:13:40.322Z,4.45
2023-03-13T01:16:09.982Z,4.40
2023-03-13T01:18:38.868Z,4.55
2023-03-13T01:21:06.435Z,4.72
2023-03-13T01:23:33.170Z,4.57
2023-03-13T01:26:00.068Z,4.76
2023-03-13T01:28:27.656Z,4.49
2023-03-13T01:30:54.580Z,4.40
2023-03-13T01:33:21.238Z,4.71
2023-03-13T01:35:48.064Z,4.79
2023-03-13T01:38:15.023Z,4.67
2023-03-13T01:40:49.006Z,4.73
2023-03-13T01:43:27.328Z,4.51
2023-03-13T01:46:14.784Z,4.47
2023-03-13T01:49:11.105Z,5.03
2023-03-13T01:51:59.556Z,5.05
2023-03-13T01:54:33.775Z,4.91
2023-03-13T01:57:03.319Z,4.86
2023-03-13T01:59:40.406Z,5.01
2023-03-13T02:02:08.104Z,4.84
2023-03-13T02:04:38.547Z,4.89
2023-03-13T02:07:16.061Z,5.11
2023-03-13T02:09:49.371Z,4.92
2023-03-13T02:12:22.566Z,5.12
2023-03-13T02:14:50.612Z,4.87
2023-03-13T02:17:17.938Z,5.00
2023-03-13T02:19:51.883Z,4.75
2023-03-13T02:22:27.693Z,5.03
2023-03-13T02:25:09.631Z,5.11
2023-03-13T02:27:36.481Z,4.90
2023-03-13T02:30:06.337Z,5.11
2023-03-13T02:32:33.358Z,4.81
2023-03-13T02:35:22.093Z,5.12
2023-03-13T02:37:53.612Z,5.13
2023-03-13T02:40:27.778Z,5.18
2023-03-13T02:42:59.002Z,5.09
2023-03-13T02:45:25.713Z,5.08
2023-03-13T02:47:52.502Z,5.02
2023-03-13T02:50:19.793Z,5.12
2023-03-13T02:52:54.873Z,5.26
2023-03-13T02:55:29.461Z,5.53
2023-03-13T02:57:56.330Z,5.49
2023-03-13T03:00:26.790Z,5.27
2023-03-13T03:02:55.925Z,4.92
2023-03-13T03:05:23.059Z,5.01
2023-03-13T03:07:51.170Z,4.93
2023-03-13T03:10:18.807Z,5.04
2023-03-13T03:12:45.721Z,4.87
2023-03-13T03:15:13.658Z,4.89
2023-03-13T03:17:44.582Z,4.64
2023-03-13T03:20:12.214Z,4.77
2023-03-13T03:22:42.034Z,4.87
2023-03-13T03:25:09.629Z,4.69
2023-03-13T03:27:36.552Z,4.73
2023-03-13T03:30:07.259Z,4.66
2023-03-13T03:32:35.648Z,4.67
2023-03-13T03:35:02.859Z,4.72
2023-03-13T03:37:29.620Z,4.71
2023-03-13T03:39:56.976Z,4.76
2023-03-13T03:42:23.831Z,4.73
2023-03-13T03:44:50.490Z,4.69
2023-03-13T03:47:18.199Z,4.83
2023-03-13T03:49:47.502Z,4.91
2023-03-13T03:52:15.231Z,4.94
2023-03-13T03:54:43.473Z,4.74
2023-03-13T03:57:10.206Z,4.74
2023-03-13T03:59:37.756Z,4.85
2023-03-13T04:02:07.655Z,4.71
2023-03-13T04:04:35.819Z,4.88
2023-03-13T04:07:09.513Z,4.93
2023-03-13T04:09:36.298Z,4.97
2023-03-13T04:12:05.156Z,5.01
2023-03-13T04:14:36.392Z,4.91
2023-03-13T04:17:06.203Z,5.02
2023-03-13T04:19:33.098Z,5.03
2023-03-13T04:22:00.327Z,5.09
2023-03-13T04:24:26.890Z,5.05
2023-03-13T04:26:56.054Z,4.81
2023-03-13T04:29:22.770Z,4.88
2023-03-13T04:32:04.022Z,5.09
2023-03-13T04:34:56.795Z,5.18
2023-03-13T04:37:42.124Z,5.16
2023-03-13T04:40:27.634Z,5.07
2023-03-13T04:43:20.628Z,4.87
2023-03-13T04:46:06.444Z,5.22
2023-03-13T04:48:51.336Z,5.27
2023-03-13T04:51:30.270Z,5.40
2023-03-13T04:54:17.105Z,5.31
2023-03-13T04:56:57.529Z,5.45
2023-03-13T04:59:53.789Z,5.32
2023-03-13T05:02:39.545Z,5.43
2023-03-13T05:05:26.550Z,5.32
2023-03-13T05:08:22.350Z,5.56
2023-03-13T05:11:09.209Z,5.78
2023-03-13T05:13:44.790Z,5.13
2023-03-13T05:16:25.154Z,5.72
2023-03-13T05:19:14.065Z,5.64
2023-03-13T05:21:59.247Z,5.38
2023-03-13T05:25:05.459Z,5.69
2023-03-13T05:27:49.038Z,5.38
2023-03-13T05:30:38.719Z,5.37
2023-03-13T05:33:23.827Z,5.70
2023-03-13T05:36:16.892Z,5.76
2023-03-13T05:39:04.302Z,5.65
2023-03-13T05:41:49.800Z,5.67
2023-03-13T05:44:35.313Z,5.76
2023-03-13T05:47:22.194Z,5.62
2023-03-13T05:50:07.614Z,5.91
2023-03-13T05:52:57.568Z,5.91
2023-03-13T05:55:40.925Z,5.89
2023-03-13T05:58:28.160Z,6.29
2023-03-13T06:01:33.175Z,5.93
2023-03-13T06:04:09.135Z,5.75
2023-03-13T06:06:37.409Z,5.99
2023-03-13T06:09:05.050Z,5.94
2023-03-13T06:11:33.388Z,6.21
2023-03-13T06:14:00.257Z,6.01
2023-03-13T06:16:41.437Z,6.31
2023-03-13T06:19:22.604Z,6.11
2023-03-13T06:21:49.303Z,6.37
2023-03-13T06:24:16.196Z,6.01
2023-03-13T06:26:43.059Z,6.32
2023-03-13T06:29:11.325Z,6.49
2023-03-13T06:31:38.145Z,6.28
2023-03-13T06:34:05.001Z,6.49
2023-03-13T06:36:31.719Z,6.49
2023-03-13T06:38:58.509Z,6.45
2023-03-13T06:41:24.999Z,6.10
2023-03-13T06:43:51.894Z,6.39
2023-03-13T06:46:24.372Z,6.63
2023-03-13T06:48:51.568Z,6.61
2023-03-13T06:51:24.917Z,6.63
2023-03-13T06:53:54.533Z,6.69
2023-03-13T06:56:22.186Z,6.66
2023-03-13T06:58:52.407Z,6.93
2023-03-13T11:31:16.175Z,10.33
2023-03-13T11:33:57.611Z,10.96
2023-03-13T11:36:39.521Z,11.54
2023-03-13T11:39:25.033Z,10.92
2023-03-13T11:42:12.197Z,10.84
2023-03-13T11:45:16.128Z,10.13
2023-03-13T11:47:51.906Z,11.47
2023-03-13T11:50:48.226Z,11.37
2023-03-13T11:53:23.970Z,10.82
2023-03-13T11:56:10.167Z,11.03
2023-03-13T11:58:58.346Z,10.97
2023-03-13T12:01:28.411Z,10.73
2023-03-13T12:04:07.405Z,10.72
2023-03-13T12:07:06.769Z,10.92
2023-03-13T12:09:41.894Z,10.65
2023-03-13T12:12:30.508Z,9.86
2023-03-13T12:15:05.069Z,10.84
2023-03-13T12:17:43.180Z,11.34
2023-03-13T12:20:26.863Z,10.82
2023-03-13T12:23:24.002Z,10.90
2023-03-13T12:26:07.678Z,10.93
2023-03-13T12:28:42.402Z,10.90
2023-03-13T12:31:40.681Z,11.07
2023-03-13T12:34:30.799Z,11.38
2023-03-13T12:37:07.453Z,11.83
2023-03-13T12:39:47.848Z,11.36
2023-03-13T12:42:26.627Z,11.18
2023-03-13T12:44:58.698Z,10.92
2023-03-13T12:47:32.839Z,10.80
2023-03-13T12:50:20.888Z,10.96
2023-03-13T12:52:54.727Z,10.86
2023-03-13T12:55:33.206Z,11.42
2023-03-13T12:58:37.772Z,11.15
2023-03-13T13:01:06.877Z,11.68
2023-03-13T13:04:37.677Z,11.10
2023-03-13T13:07:20.143Z,11.29
2023-03-13T13:10:04.204Z,11.34
2023-03-13T13:12:31.335Z,11.73
2023-03-13T13:15:04.097Z,11.50
2023-03-13T13:17:39.997Z,12.19
2023-03-13T13:20:30.559Z,12.63
2023-03-13T13:23:16.652Z,12.80
2023-03-13T13:25:43.714Z,10.89
2023-03-13T13:28:23.993Z,12.11
2023-03-13T13:30:56.671Z,11.96
2023-03-13T13:33:30.951Z,12.07
2023-03-13T13:36:10.101Z,11.07
2023-03-13T13:38:42.870Z,11.48
2023-03-13T13:41:11.997Z,11.71
2023-03-13T13:43:47.064Z,11.35
2023-03-13T13:46:34.919Z,11.82
2023-03-13T13:49:17.557Z,11.85
2023-03-13T13:52:05.918Z,12.68
2023-03-13T13:54:43.498Z,12.79
2023-03-13T13:57:31.278Z,12.05
2023-03-13T14:00:21.219Z,12.97
2023-03-13T14:02:56.813Z,13.15
2023-03-13T14:05:38.599Z,12.44
2023-03-13T14:08:19.867Z,12.61
2023-03-13T14:10:55.307Z,12.53
2023-03-13T14:13:22.391Z,12.95
2023-03-13T14:15:53.461Z,12.62
2023-03-13T14:18:24.694Z,12.77
2023-03-13T14:20:59.901Z,12.60
2023-03-13T14:23:46.767Z,12.41
2023-03-13T14:26:18.244Z,12.46
2023-03-13T14:28:48.844Z,12.32
2023-03-13T14:31:38.647Z,12.53
2023-03-13T14:34:13.026Z,12.09
2023-03-13T14:36:57.076Z,12.43
2023-03-13T14:39:31.077Z,12.20
2023-03-13T14:42:04.448Z,12.32
2023-03-13T14:44:36.408Z,12.71
2023-03-13T14:47:09.334Z,12.55
2023-03-13T14:49:37.101Z,12.71
2023-03-13T14:52:23.982Z,12.24
2023-03-13T14:55:22.432Z,12.04
2023-03-13T14:58:20.617Z,12.41
2023-03-13T15:00:49.253Z,12.09
2023-03-13T15:03:16.773Z,12.51
2023-03-13T15:05:45.954Z,12.85
2023-03-13T15:08:22.111Z,12.80
2023-03-13T15:10:49.941Z,12.50
2023-03-13T15:13:19.570Z,13.05
2023-03-13T15:15:50.004Z,12.81
2023-03-13T15:18:24.451Z,12.86
2023-03-13T15:20:52.945Z,13.02
2023-03-13T15:23:20.533Z,12.89
2023-03-13T15:25:47.786Z,12.93
2023-03-13T15:28:17.311Z,12.58
2023-03-13T15:30:45.335Z,12.88
2023-03-13T15:33:17.453Z,12.76
2023-03-13T15:35:44.882Z,12.27
2023-03-13T15:38:29.858Z,12.14
2023-03-13T15:40:56.592Z,12.30
2023-03-13T15:43:24.817Z,12.27
2023-03-13T15:45:52.113Z,12.04
2023-03-13T15:48:24.419Z,12.15
2023-03-13T15:51:04.148Z,12.14
2023-03-13T15:53:35.346Z,11.72
2023-03-13T15:56:10.867Z,12.00
2023-03-13T15:58:38.005Z,11.85
2023-03-13T16:01:04.777Z,11.06
2023-03-13T16:03:31.649Z,11.01
2023-03-13T16:05:58.476Z,10.05
2023-03-13T16:08:36.071Z,8.03
2023-03-13T16:11:04.040Z,7.82
2023-03-13T16:13:31.419Z,7.62
2023-03-13T16:15:58.558Z,7.61
2023-03-13T16:18:25.676Z,7.34
2023-03-13T16:20:53.032Z,7.54
2023-03-13T16:23:19.814Z,7.20
2023-03-13T16:25:48.667Z,7.50
2023-03-13T16:28:16.206Z,7.60
2023-03-13T16:30:47.419Z,7.54
2023-03-13T16:33:14.295Z,7.80
2023-03-13T16:35:41.040Z,7.81
2023-03-13T16:38:11.246Z,7.44
2023-03-13T16:40:38.216Z,7.62
2023-03-13T16:43:04.819Z,7.50
2023-03-13T16:45:31.358Z,7.43
2023-03-13T16:47:58.169Z,7.57
2023-03-13T16:50:36.098Z,7.89
2023-03-13T16:53:03.634Z,7.75
2023-03-13T16:55:36.228Z,7.60
2023-03-13T16:58:04.123Z,7.43
2023-03-13T17:00:32.116Z,7.83
2023-03-13T17:02:59.231Z,7.81
2023-03-13T17:05:27.111Z,7.76
2023-03-13T17:07:54.397Z,7.74
2023-03-13T17:10:22.758Z,7.75
2023-03-13T17:12:50.119Z,7.88
2023-03-13T17:15:17.918Z,7.91
2023-03-13T17:17:48.899Z,8.06
2023-03-13T17:24:03.980Z,8.11
2023-03-13T17:26:36.781Z,7.57
2023-03-13T17:29:04.810Z,7.33
2023-03-13T17:31:37.165Z,7.07
2023-03-13T17:34:05.331Z,7.49
2023-03-13T17:36:32.836Z,7.55
2023-03-13T17:39:01.357Z,7.65
2023-03-13T17:41:30.707Z,7.43
2023-03-13T17:43:57.671Z,7.66
2023-03-13T17:46:46.303Z,7.04
2023-03-13T17:49:15.203Z,7.69
2023-03-13T17:51:44.604Z,7.63
2023-03-13T17:54:13.715Z,7.17
2023-03-13T17:56:42.140Z,7.39
2023-03-13T17:59:17.889Z,7.25
2023-03-13T18:01:45.207Z,7.38
2023-03-13T18:04:12.023Z,7.62
2023-03-13T18:06:47.142Z,7.68
2023-03-13T18:09:20.709Z,7.68
2023-03-13T18:11:48.915Z,7.52
2023-03-13T18:14:15.558Z,7.58
2023-03-13T18:16:48.148Z,7.42
2023-03-13T18:19:21.287Z,7.33
2023-03-13T18:21:50.135Z,7.63
2023-03-13T18:24:17.979Z,7.43
2023-03-13T18:26:49.858Z,7.67
2023-03-13T18:29:26.481Z,7.33
2023-03-13T18:31:55.602Z,7.48
2023-03-13T18:34:23.516Z,7.32
2023-03-13T18:36:50.387Z,7.64
2023-03-13T18:39:18.742Z,7.49
2023-03-13T18:41:49.507Z,7.74
2023-03-13T18:44:18.850Z,7.88
2023-03-13T18:46:46.139Z,7.93
2023-03-13T18:49:20.231Z,7.58
2023-03-13T18:51:50.680Z,7.40
2023-03-13T18:54:19.241Z,7.71
2023-03-13T18:56:47.264Z,7.70
2023-03-13T18:59:22.007Z,7.58
2023-03-13T19:01:49.417Z,7.53
2023-03-13T19:04:17.060Z,7.47
2023-03-13T19:06:45.852Z,7.62
2023-03-13T19:09:42.349Z,7.55
2023-03-13T19:12:07.705Z,7.66
2023-03-13T19:14:34.329Z,7.77
2023-03-13T19:17:01.015Z,7.68
2023-03-13T19:19:27.800Z,8.00
2023-03-13T19:21:57.529Z,8.00
2023-03-13T19:24:26.769Z,8.06
2023-03-13T19:26:58.798Z,8.05
2023-03-13T19:29:27.951Z,8.07
2023-03-13T19:31:55.023Z,7.70
2023-03-13T19:34:21.839Z,8.04
2023-03-13T19:36:49.738Z,8.03
2023-03-13T19:39:18.839Z,7.76
2023-03-13T19:41:47.953Z,8.21
2023-03-13T19:44:15.704Z,7.91
2023-03-13T19:46:43.422Z,8.32
2023-03-13T19:49:15.896Z,8.09
2023-03-13T19:51:42.996Z,8.17
2023-03-13T19:54:10.952Z,8.24
2023-03-13T19:56:39.756Z,7.98
2023-03-13T19:59:12.975Z,8.21
2023-03-13T20:01:39.566Z,8.09
2023-03-13T20:04:06.334Z,7.58
2023-03-13T20:06:34.670Z,8.05
2023-03-13T20:09:04.762Z,7.76
2023-03-13T20:11:31.555Z,7.82
2023-03-13T20:13:58.339Z,7.77
2023-03-13T20:16:27.883Z,7.69
2023-03-13T20:18:57.999Z,7.88
2023-03-13T20:21:29.323Z,7.58
2023-03-13T20:23:57.422Z,7.67
2023-03-13T20:26:26.151Z,7.53
2023-03-13T20:28:53.397Z,7.38
2023-03-13T20:31:23.340Z,7.28
2023-03-13T20:33:49.946Z,7.66
2023-03-13T20:36:19.236Z,7.18
2023-03-13T20:38:46.851Z,7.36
2023-03-13T20:41:14.067Z,7.22
2023-03-13T20:43:40.784Z,7.33
2023-03-13T20:46:07.430Z,7.12
2023-03-13T20:48:39.332Z,7.20
2023-03-13T20:51:07.863Z,7.25
2023-03-13T20:53:36.769Z,7.30
2023-03-13T20:56:06.662Z,7.36
2023-03-13T20:58:34.009Z,7.49
2023-03-13T21:01:01.975Z,7.56
2023-03-13T21:03:29.176Z,7.42
2023-03-13T21:05:55.669Z,7.51
2023-03-13T21:08:22.953Z,7.21
2023-03-13T21:10:49.637Z,6.96
2023-03-13T21:13:16.174Z,6.70
2023-03-13T21:15:43.151Z,6.45
2023-03-13T21:18:09.872Z,6.54
2023-03-13T21:20:37.800Z,6.75
2023-03-13T21:23:04.399Z,6.20
2023-03-13T21:25:31.073Z,6.58
2023-03-13T21:27:57.772Z,6.25
2023-03-13T21:30:24.542Z,6.02
2023-03-13T21:32:51.267Z,6.27
2023-03-13T21:35:18.173Z,5.89
2023-03-13T21:37:45.066Z,5.95
2023-03-13T21:40:12.621Z,5.92
2023-03-13T21:42:39.488Z,5.72
2023-03-13T21:45:07.408Z,5.99
2023-03-13T21:47:37.038Z,5.65
2023-03-13T21:50:08.568Z,5.59
2023-03-13T21:52:41.198Z,5.29
2023-03-13T21:55:11.978Z,5.53
2023-03-13T21:57:38.768Z,5.50
